createdAt,value
2022-09-11T00:04:59.141Z,13.30
2022-09-11T00:10:02.312Z,13.30
2022-09-11T00:15:07.974Z,13.20
2022-09-11T00:20:11.528Z,13.30
2022-09-11T00:25:14.613Z,13.30
2022-09-11T00:30:19.430Z,13.30
2022-09-11T00:35:22.608Z,13.30
2022-09-11T00:40:26.391Z,13.40
2022-09-11T00:45:32.331Z,13.30
2022-09-11T00:50:35.841Z,13.30
2022-09-11T00:55:42.193Z,13.30
2022-09-11T01:00:47.000Z,13.30
2022-09-11T01:05:50.781Z,13.20
2022-09-11T01:11:05.583Z,13.30
2022-09-11T01:16:20.643Z,13.20
2022-09-11T01:22:03.235Z,13.20
2022-09-11T01:27:42.024Z,13.20
2022-09-11T01:33:03.887Z,13.20
2022-09-11T01:38:14.871Z,13.10
2022-09-11T01:43:26.789Z,13.10
2022-09-11T01:48:33.039Z,13.30
2022-09-11T01:53:41.371Z,13.20
2022-09-11T01:58:48.082Z,13.30
2022-09-11T02:03:55.790Z,13.30
2022-09-11T02:09:01.728Z,13.30
2022-09-11T02:14:10.890Z,13.30
2022-09-11T02:19:16.685Z,13.40
2022-09-11T02:24:21.201Z,13.40
2022-09-11T02:29:26.734Z,13.40
2022-09-11T02:34:34.296Z,13.30
2022-09-11T02:39:57.145Z,13.50
2022-09-11T02:45:13.488Z,13.50
2022-09-11T02:50:28.209Z,13.40
2022-09-11T02:55:41.707Z,13.30
2022-09-11T03:00:48.141Z,13.40
2022-09-11T03:05:51.313Z,13.40
2022-09-11T03:10:56.145Z,13.30
2022-09-11T03:16:01.886Z,13.30
2022-09-11T03:21:05.887Z,13.30
2022-09-11T03:26:09.140Z,13.20
2022-09-11T03:31:13.998Z,13.20
2022-09-11T03:36:17.257Z,13.20
2022-09-11T03:41:20.866Z,13.10
2022-09-11T03:46:25.654Z,13.20
2022-09-11T03:51:31.302Z,13.20
2022-09-11T03:56:34.519Z,13.10
2022-09-11T04:01:39.192Z,13.10
2022-09-11T04:06:42.304Z,13.20
2022-09-11T04:11:45.434Z,13.20
2022-09-11T04:16:50.221Z,13.30
2022-09-11T04:21:53.277Z,13.30
2022-09-11T04:27:00.596Z,13.30
2022-09-11T04:32:06.038Z,13.30
2022-09-11T04:37:09.454Z,13.30
2022-09-11T04:42:12.539Z,13.30
2022-09-11T04:47:18.610Z,13.30
2022-09-11T04:52:21.897Z,13.20
2022-09-11T04:57:25.199Z,13.20
2022-09-11T05:02:29.890Z,13.10
2022-09-11T05:07:33.206Z,13.10
2022-09-11T05:12:36.297Z,13.20
2022-09-11T05:17:40.864Z,13.20
2022-09-11T05:22:44.209Z,13.20
2022-09-11T05:27:47.599Z,13.30
2022-09-11T05:32:55.684Z,13.30
2022-09-11T05:37:58.850Z,13.40
2022-09-11T05:43:02.894Z,13.40
2022-09-11T05:48:07.674Z,13.40
2022-09-11T05:53:10.797Z,13.50
2022-09-11T05:58:13.951Z,13.60
2022-09-11T06:03:19.883Z,13.70
2022-09-11T06:08:26.993Z,13.80
2022-09-11T06:13:31.924Z,13.90
2022-09-11T06:18:36.353Z,14.10
2022-09-11T06:23:40.227Z,14.30
2022-09-11T06:28:43.686Z,14.50
2022-09-11T06:33:48.933Z,14.60
2022-09-11T06:38:54.961Z,14.80
2022-09-11T06:43:58.162Z,15.10
2022-09-11T06:49:02.846Z,15.30
2022-09-11T06:54:06.112Z,15.60
2022-09-11T06:59:10.198Z,15.80
2022-09-11T07:04:14.633Z,16.10
2022-09-11T07:09:21.561Z,16.10
2022-09-11T07:14:29.596Z,16.50
2022-09-11T07:19:34.058Z,16.90
2022-09-11T07:24:37.299Z,16.80
2022-09-11T07:29:40.366Z,16.40
2022-09-11T07:34:45.264Z,16.30
2022-09-11T07:39:48.472Z,16.30
2022-09-11T07:44:51.861Z,16.50
2022-09-11T07:49:57.376Z,16.70
2022-09-11T07:55:01.458Z,16.80
2022-09-11T08:00:06.780Z,17.00
2022-09-11T08:05:12.529Z,17.10
2022-09-11T08:10:27.210Z,17.10
2022-09-11T08:15:31.246Z,17.70
2022-09-11T08:20:35.661Z,17.90
2022-09-11T08:25:39.262Z,17.70
2022-09-11T08:30:42.376Z,17.80
2022-09-11T08:35:46.916Z,18.10
2022-09-11T08:40:50.164Z,18.60
2022-09-11T08:45:57.156Z,18.90
2022-09-11T08:51:01.791Z,18.80
2022-09-11T08:56:10.369Z,18.80
2022-09-11T09:01:24.891Z,18.90
2022-09-11T09:06:45.208Z,19.40
2022-09-11T09:11:56.028Z,19.10
2022-09-11T09:17:03.101Z,19.10
2022-09-11T09:22:18.881Z,19.40
2022-09-11T09:27:28.370Z,20.10
2022-09-11T09:32:35.077Z,20.00
2022-09-11T09:37:40.179Z,18.90
2022-09-11T09:43:05.388Z,19.00
2022-09-11T09:48:11.671Z,19.10
2022-09-11T09:53:30.517Z,18.70
2022-09-11T09:58:37.764Z,18.80
2022-09-11T10:03:40.948Z,19.10
2022-09-11T10:08:45.547Z,20.30
2022-09-11T10:13:55.279Z,20.90
2022-09-11T10:18:58.444Z,20.30
2022-09-11T10:29:50.435Z,18.90
2022-09-11T10:34:54.581Z,18.60
2022-09-11T10:40:08.642Z,18.70
2022-09-11T10:45:23.493Z,18.80
2022-09-11T10:50:28.903Z,19.00
2022-09-11T10:55:40.631Z,19.80
2022-09-11T11:00:45.094Z,20.30
2022-09-11T11:06:00.722Z,20.90
2022-09-11T11:11:24.367Z,20.30
2022-09-11T11:16:39.662Z,19.90
2022-09-11T11:21:53.124Z,20.90
2022-09-11T11:27:11.182Z,21.40
2022-09-11T11:32:49.635Z,22.10
2022-09-11T11:38:01.702Z,22.40
2022-09-11T11:43:11.183Z,22.20
2022-09-11T11:48:25.541Z,21.70
2022-09-11T11:53:33.967Z,21.70
2022-09-11T11:58:48.459Z,21.90
2022-09-11T12:03:59.690Z,22.00
2022-09-11T12:09:04.072Z,21.80
2022-09-11T12:14:26.280Z,21.60
2022-09-11T12:19:29.390Z,22.00
2022-09-11T12:24:59.331Z,22.30
2022-09-11T12:30:21.276Z,22.00
2022-09-11T12:35:34.932Z,22.60
2022-09-11T12:40:48.059Z,23.20
2022-09-11T12:45:52.674Z,23.70
2022-09-11T12:50:58.051Z,23.70
2022-09-11T12:56:04.724Z,23.60
2022-09-11T13:01:21.390Z,24.20
2022-09-11T13:06:27.617Z,24.80
2022-09-11T13:11:52.852Z,24.70
2022-09-11T13:16:58.937Z,24.40
2022-09-11T13:22:02.043Z,23.40
2022-09-11T13:27:08.792Z,22.70
2022-09-11T13:32:17.992Z,23.40
2022-09-11T13:37:32.370Z,22.90
2022-09-11T13:42:37.986Z,22.50
2022-09-11T13:47:43.274Z,22.10
2022-09-11T13:52:47.740Z,21.80
2022-09-11T13:57:58.724Z,21.50
2022-09-11T14:03:03.417Z,21.60
2022-09-11T14:08:24.510Z,21.50
2022-09-11T14:13:34.191Z,20.90
2022-09-11T14:18:43.351Z,20.90
2022-09-11T14:23:49.079Z,20.60
2022-09-11T14:29:03.946Z,20.20
2022-09-11T14:34:20.851Z,20.00
2022-09-11T14:39:30.487Z,19.90
2022-09-11T14:44:37.865Z,20.20
2022-09-11T14:49:42.302Z,20.20
2022-09-11T14:54:46.578Z,20.40
2022-09-11T14:59:50.611Z,20.70
2022-09-11T15:04:56.955Z,20.80
2022-09-11T15:10:00.139Z,20.80
2022-09-11T15:15:04.020Z,20.90
2022-09-11T15:20:11.632Z,20.70
2022-09-11T15:25:14.890Z,20.40
2022-09-11T15:30:18.553Z,20.30
2022-09-11T15:40:56.779Z,20.00
2022-09-11T15:46:00.077Z,20.10
2022-09-11T15:51:06.838Z,20.50
2022-09-11T15:56:12.914Z,20.90
2022-09-11T16:01:20.056Z,21.20
2022-09-11T16:06:26.162Z,21.40
2022-09-11T16:11:31.313Z,21.30
2022-09-11T16:16:34.583Z,21.30
2022-09-11T16:21:39.109Z,21.10
2022-09-11T16:26:44.134Z,20.80
2022-09-11T16:31:47.594Z,20.80
2022-09-11T16:36:52.941Z,20.60
2022-09-11T16:41:56.068Z,20.40
2022-09-11T16:46:59.451Z,20.20
2022-09-11T16:52:05.188Z,20.10
2022-09-11T16:57:08.440Z,19.80
2022-09-11T17:02:12.232Z,19.50
2022-09-11T17:07:16.804Z,19.10
2022-09-11T17:12:21.355Z,18.90
2022-09-11T17:17:24.541Z,18.60
2022-09-11T17:22:29.778Z,18.40
2022-09-11T17:27:33.056Z,18.20
2022-09-11T17:32:38.895Z,17.90
2022-09-11T17:37:45.883Z,17.80
2022-09-11T17:42:49.011Z,17.50
2022-09-11T17:47:57.302Z,17.30
2022-09-11T17:53:02.983Z,17.20
2022-09-11T17:58:06.237Z,17.00
2022-09-11T18:03:09.400Z,16.80
2022-09-11T18:08:16.082Z,16.70
2022-09-11T18:13:22.162Z,16.50
2022-09-11T18:18:26.696Z,16.30
2022-09-11T18:23:31.175Z,16.00
2022-09-11T18:28:35.955Z,15.80
2022-09-11T18:33:39.041Z,15.50
2022-09-11T18:38:43.609Z,15.40
2022-09-11T18:43:46.951Z,15.20
2022-09-11T18:48:51.178Z,15.10
2022-09-11T18:53:56.134Z,15.00
2022-09-11T18:59:00.298Z,14.80
2022-09-11T19:04:07.535Z,14.60
2022-09-11T19:09:12.987Z,14.40
2022-09-11T19:14:16.101Z,14.30
2022-09-11T19:19:19.921Z,14.10
2022-09-11T19:24:28.292Z,14.00
2022-09-11T19:29:32.169Z,13.80
2022-09-11T19:34:38.880Z,13.70
2022-09-11T19:39:43.929Z,13.70
2022-09-11T19:44:47.468Z,13.60
2022-09-11T19:49:51.390Z,13.50
2022-09-11T19:54:55.917Z,13.40
2022-09-11T20:00:00.391Z,13.20
2022-09-11T20:05:03.917Z,13.10
2022-09-11T20:10:10.642Z,13.00
2022-09-11T20:15:13.901Z,12.90
2022-09-11T20:20:17.201Z,12.80
2022-09-11T20:25:26.066Z,12.70
2022-09-11T20:30:32.700Z,12.70
2022-09-11T20:35:36.170Z,12.60
2022-09-11T20:40:44.046Z,12.60
2022-09-11T20:45:48.176Z,12.50
2022-09-11T20:50:52.280Z,12.50
2022-09-11T20:56:01.994Z,12.30
2022-09-11T21:01:05.920Z,12.30
2022-09-11T21:06:09.881Z,12.30
2022-09-11T21:11:14.423Z,12.20
2022-09-11T21:16:17.883Z,12.10
2022-09-11T21:21:22.019Z,12.00
2022-09-11T21:26:28.856Z,11.90
2022-09-11T21:31:32.107Z,11.80
2022-09-11T21:36:36.771Z,11.70
2022-09-11T21:41:41.268Z,11.70
2022-09-11T21:46:44.335Z,11.70
2022-09-11T21:51:47.504Z,11.70
2022-09-11T21:56:51.919Z,11.60
2022-09-11T22:01:55.033Z,11.50
2022-09-11T22:06:58.119Z,11.40
2022-09-11T22:12:03.085Z,11.30
2022-09-11T22:17:06.298Z,11.20
2022-09-11T22:22:09.411Z,11.10
2022-09-11T22:27:14.085Z,11.10
2022-09-11T22:32:17.260Z,11.00
2022-09-11T22:37:21.394Z,11.00
2022-09-11T22:42:25.924Z,10.80
2022-09-11T22:47:28.986Z,10.80
2022-09-11T22:52:32.120Z,10.80
2022-09-11T22:57:37.986Z,10.90
2022-09-11T23:02:41.191Z,10.80
2022-09-11T23:07:44.938Z,10.80
2022-09-11T23:12:49.538Z,10.70
2022-09-11T23:17:52.952Z,10.70
2022-09-11T23:22:56.314Z,10.60
2022-09-11T23:28:00.826Z,10.60
2022-09-11T23:33:03.954Z,10.60
2022-09-11T23:38:07.152Z,10.50
2022-09-11T23:43:11.581Z,10.40
2022-09-11T23:48:14.680Z,10.30
2022-09-11T23:53:17.855Z,10.20
2022-09-11T23:58:22.541Z,10.30
